Time;durP1;ratioP1;P1;durP2;ratioP2;P2;SDS_P1;SDS_P2;PMS_P1;PMS_P2;Temp;Humidity;BMP_temperature;BMP_pressure;BME280_temperature;BME280_humidity;BME280_pressure;Samples;Min_cycle;Max_cycle;Signal;HPM_P1;HPM_P2
2021/04/16 00:00:17;;;;;;;1.37;0.40;;;4.90;67.80;;;;;;4895181;29;20559;-71
2021/04/16 00:02:44;;;;;;;0.82;0.40;;;4.90;67.80;;;;;;4863629;29;20412;-71
2021/04/16 00:05:12;;;;;;;1.80;0.80;;;4.90;67.90;;;;;;4897290;29;20120;-71
2021/04/16 00:07:38;;;;;;;0.43;0.20;;;4.90;67.90;;;;;;4899352;29;20096;-71
2021/04/16 00:10:13;;;;;;;1.13;0.40;;;4.80;68.00;;;;;;4894696;29;20072;-71
2021/04/16 00:12:40;;;;;;;0.53;0.30;;;4.80;68.10;;;;;;4883357;29;20048;-71
2021/04/16 00:15:11;;;;;;;0.83;0.27;;;4.80;68.10;;;;;;4893137;29;20048;-71
2021/04/16 00:17:37;;;;;;;1.03;0.40;;;4.80;68.20;;;;;;4880216;29;20108;-71
2021/04/16 00:20:07;;;;;;;2.00;0.40;;;4.70;68.20;;;;;;4880096;29;20041;-71
2021/04/16 00:22:35;;;;;;;0.50;0.20;;;4.70;68.30;;;;;;4879318;29;20049;-71
2021/04/16 00:25:04;;;;;;;0.87;0.40;;;4.70;68.40;;;;;;4896830;29;20556;-71
2021/04/16 00:27:30;;;;;;;0.67;0.20;;;4.70;68.50;;;;;;4896939;29;20097;-71
2021/04/16 00:29:57;;;;;;;0.67;0.30;;;4.70;69.10;;;;;;4879787;29;20067;-71
2021/04/16 00:32:23;;;;;;;1.43;0.50;;;4.60;68.50;;;;;;4878836;29;20120;-71
2021/04/16 00:34:50;;;;;;;1.00;0.20;;;4.70;68.70;;;;;;4880222;29;20520;-71
2021/04/16 00:37:17;;;;;;;0.70;0.20;;;4.60;68.70;;;;;;4864678;29;20064;-71
2021/04/16 00:39:43;;;;;;;1.33;0.30;;;4.60;68.80;;;;;;4880413;29;20048;-70
2021/04/16 00:42:10;;;;;;;0.80;0.30;;;4.60;69.50;;;;;;4896787;29;20100;-71
2021/04/16 00:44:37;;;;;;;1.77;0.87;;;4.50;69.00;;;;;;4880438;29;20516;-71
2021/04/16 00:47:13;;;;;;;0.93;0.40;;;4.50;69.10;;;;;;4879579;29;20095;-71
2021/04/16 00:49:44;;;;;;;1.40;0.37;;;4.50;69.00;;;;;;4897136;29;20127;-70
2021/04/16 00:52:15;;;;;;;0.73;0.30;;;4.50;69.10;;;;;;4895395;29;20044;-71
2021/04/16 00:54:42;;;;;;;0.80;0.30;;;4.50;69.20;;;;;;4896236;29;20084;-71
2021/04/16 00:57:12;;;;;;;1.43;0.60;;;4.50;69.20;;;;;;4873392;29;20587;-70
2021/04/16 00:59:45;;;;;;;0.80;0.33;;;4.50;69.30;;;;;;4879192;29;20135;-70
2021/04/16 01:02:12;;;;;;;0.95;0.30;;;4.40;69.40;;;;;;4894792;29;20048;-70
2021/04/16 01:04:39;;;;;;;0.60;0.20;;;4.40;69.60;;;;;;4879863;29;20422;-70
2021/04/16 01:07:07;;;;;;;0.67;0.33;;;4.40;69.60;;;;;;4893356;29;20063;-71
2021/04/16 01:09:35;;;;;;;0.80;0.40;;;4.30;69.70;;;;;;4894784;29;20041;-71
2021/04/16 01:12:05;;;;;;;1.03;0.30;;;4.30;69.70;;;;;;4885835;29;20057;-71
2021/04/16 01:14:34;;;;;;;1.10;0.43;;;4.30;69.80;;;;;;4880783;29;20049;-71
2021/04/16 01:17:01;;;;;;;2.87;0.50;;;4.30;70.50;;;;;;4894923;29;20497;-71
2021/04/16 01:19:40;;;;;;;1.07;0.47;;;4.30;70.00;;;;;;4891403;29;20501;-71
2021/04/16 01:22:17;;;;;;;0.80;0.30;;;4.30;70.00;;;;;;4887831;29;20445;-71
2021/04/16 01:24:44;;;;;;;1.87;0.60;;;4.30;70.00;;;;;;4876832;29;20057;-71
2021/04/16 01:27:12;;;;;;;1.77;0.40;;;4.30;70.10;;;;;;4878880;29;20044;-71
2021/04/16 01:29:46;;;;;;;1.83;0.60;;;4.30;70.10;;;;;;4879112;29;20044;-71
2021/04/16 01:32:25;;;;;;;1.90;0.50;;;4.30;70.30;;;;;;4856057;29;20071;-71
2021/04/16 01:34:51;;;;;;;1.13;0.40;;;4.20;70.30;;;;;;4896782;29;20045;-71
2021/04/16 01:37:18;;;;;;;1.43;0.50;;;4.20;70.40;;;;;;4871907;29;20104;-70
2021/04/16 01:39:46;;;;;;;1.77;0.50;;;4.20;70.50;;;;;;4875161;29;20394;-71
2021/04/16 01:42:13;;;;;;;1.60;0.53;;;4.20;70.70;;;;;;4881580;29;20060;-71
2021/04/16 01:44:44;;;;;;;1.77;0.40;;;4.20;70.70;;;;;;4896406;29;20079;-70
2021/04/16 01:47:12;;;;;;;2.27;0.40;;;4.20;70.80;;;;;;4874913;29;20426;-71
2021/04/16 01:49:41;;;;;;;0.93;0.37;;;4.20;70.90;;;;;;4867131;29;20089;-70
2021/04/16 01:52:15;;;;;;;1.33;0.40;;;4.10;70.90;;;;;;4888552;29;20156;-69
2021/04/16 01:54:50;;;;;;;2.93;0.50;;;4.10;71.00;;;;;;4872400;29;20505;-70
2021/04/16 01:57:36;;;;;;;1.53;0.57;;;4.10;71.20;;;;;;4876228;29;20047;-71
2021/04/16 02:00:19;;;;;;;1.30;0.50;;;4.10;71.30;;;;;;4892792;29;20100;-70
2021/04/16 02:02:45;;;;;;;3.67;0.85;;;4.10;72.00;;;;;;4870882;29;20056;-70
2021/04/16 02:05:12;;;;;;;1.73;0.67;;;4.00;71.70;;;;;;4894368;29;20055;-71
2021/04/16 02:07:39;;;;;;;2.03;0.77;;;4.00;71.70;;;;;;4872205;29;20047;-70
2021/04/16 02:10:07;;;;;;;3.10;0.67;;;4.00;71.80;;;;;;4893292;29;20068;-71
2021/04/16 02:12:34;;;;;;;1.20;0.47;;;4.00;71.90;;;;;;4900022;29;20493;-70
2021/04/16 02:15:00;;;;;;;2.83;0.60;;;4.00;72.10;;;;;;4872828;29;20049;-70
2021/04/16 02:17:28;;;;;;;2.60;0.70;;;3.90;72.80;;;;;;4879277;29;20052;-71
2021/04/16 02:19:57;;;;;;;1.37;0.50;;;4.00;72.20;;;;;;4878602;29;20049;-70
2021/04/16 02:22:26;;;;;;;1.23;0.53;;;3.90;72.20;;;;;;4892391;29;20512;-70
2021/04/16 02:24:53;;;;;;;1.83;0.87;;;3.90;72.30;;;;;;4894779;29;20044;-70
2021/04/16 02:27:23;;;;;;;3.30;0.80;;;3.90;72.60;;;;;;4889427;29;20077;-71
2021/04/16 02:29:50;;;;;;;1.40;0.53;;;3.90;72.50;;;;;;4873045;29;20064;-71
2021/04/16 02:32:17;;;;;;;1.80;0.70;;;3.90;72.60;;;;;;4866981;29;20096;-70
2021/04/16 02:34:44;;;;;;;1.87;0.60;;;3.80;72.70;;;;;;4878015;29;20493;-71
2021/04/16 02:37:13;;;;;;;1.43;0.50;;;3.90;72.70;;;;;;4881497;29;20045;-70
2021/04/16 02:39:40;;;;;;;3.50;0.50;;;3.80;72.80;;;;;;4875127;29;20497;-70
2021/04/16 02:42:08;;;;;;;0.70;0.30;;;3.90;72.80;;;;;;4875343;29;20073;-70
2021/04/16 02:44:36;;;;;;;1.40;0.50;;;3.90;72.90;;;;;;4883601;29;20052;-71
2021/04/16 02:47:05;;;;;;;2.40;0.40;;;3.80;72.90;;;;;;4894484;29;20091;-70
2021/04/16 02:49:32;;;;;;;1.37;0.60;;;3.80;73.00;;;;;;4896837;29;20045;-70
2021/04/16 02:51:59;;;;;;;1.80;0.67;;;3.80;73.20;;;;;;4876245;29;20049;-70
2021/04/16 02:54:25;;;;;;;0.90;0.37;;;3.80;73.20;;;;;;4882302;29;20496;-71
2021/04/16 02:56:52;;;;;;;1.33;0.40;;;3.80;73.20;;;;;;4891274;29;20045;-71
2021/04/16 02:59:20;;;;;;;0.87;0.30;;;3.80;73.20;;;;;;4881362;29;20143;-71
2021/04/16 03:01:48;;;;;;;1.13;0.50;;;3.80;73.30;;;;;;4891026;29;20390;-70
2021/04/16 03:04:15;;;;;;;2.43;0.63;;;3.80;73.40;;;;;;4893969;29;20044;-70
2021/04/16 03:06:42;;;;;;;3.10;0.93;;;3.80;73.40;;;;;;4897981;29;20044;-70
2021/04/16 03:09:09;;;;;;;1.60;0.50;;;3.80;73.50;;;;;;4875305;29;20077;-71
2021/04/16 03:11:36;;;;;;;2.83;0.60;;;3.70;73.50;;;;;;4892980;29;20041;-70
2021/04/16 03:14:03;;;;;;;1.50;0.50;;;3.70;74.30;;;;;;4873519;29;20053;-70
2021/04/16 03:16:30;;;;;;;2.57;0.60;;;3.70;73.70;;;;;;4873589;29;20442;-70
2021/04/16 03:19:00;;;;;;;1.50;0.60;;;3.70;73.70;;;;;;4895641;29;20482;-71
2021/04/16 03:21:28;;;;;;;1.57;0.50;;;3.70;73.80;;;;;;4865261;29;20041;-71
2021/04/16 03:23:55;;;;;;;1.53;0.50;;;3.70;73.90;;;;;;4875471;29;20796;-71
2021/04/16 03:26:22;;;;;;;1.67;0.47;;;3.70;74.10;;;;;;4873215;29;20041;-71
2021/04/16 03:28:54;;;;;;;1.60;0.40;;;3.70;74.00;;;;;;4866766;29;20450;-71
2021/04/16 03:31:21;;;;;;;2.07;0.70;;;3.70;74.10;;;;;;4880421;29;20044;-71
2021/04/16 03:33:48;;;;;;;2.93;0.57;;;3.60;74.20;;;;;;4887944;29;20390;-71
2021/04/16 03:36:15;;;;;;;2.40;0.70;;;3.60;74.20;;;;;;4894141;29;20488;-71
2021/04/16 03:38:42;;;;;;;2.47;0.70;;;3.60;74.20;;;;;;4897418;29;20041;-71
2021/04/16 03:41:09;;;;;;;2.03;0.60;;;3.60;74.30;;;;;;4880265;29;20056;-71
2021/04/16 03:43:35;;;;;;;1.37;0.40;;;3.60;75.00;;;;;;4872188;29;20060;-71
2021/04/16 03:46:03;;;;;;;2.07;0.50;;;3.60;74.60;;;;;;4866172;29;20045;-71
2021/04/16 03:48:29;;;;;;;1.37;0.40;;;3.60;74.70;;;;;;4897531;29;20545;-70
2021/04/16 03:50:57;;;;;;;1.43;0.57;;;3.50;74.70;;;;;;4865608;29;20044;-70
2021/04/16 03:53:24;;;;;;;1.93;0.63;;;3.50;74.80;;;;;;4883329;29;20045;-70
2021/04/16 03:55:50;;;;;;;1.13;0.40;;;3.60;74.80;;;;;;4877238;29;20056;-70
2021/04/16 03:58:17;;;;;;;0.97;0.47;;;3.50;74.80;;;;;;4885885;29;20045;-70
2021/04/16 04:00:43;;;;;;;1.03;0.60;;;3.50;74.80;;;;;;4867388;29;20390;-72
2021/04/16 04:03:12;;;;;;;1.60;0.60;;;3.50;74.90;;;;;;4892682;29;20037;-72
2021/04/16 04:05:39;;;;;;;2.00;0.63;;;3.50;75.00;;;;;;4881478;29;20128;-72
2021/04/16 04:08:06;;;;;;;1.17;0.50;;;3.50;75.00;;;;;;4897056;29;20390;-72
2021/04/16 04:10:37;;;;;;;1.77;0.50;;;3.50;75.20;;;;;;4889254;29;20057;-72
2021/04/16 04:13:09;;;;;;;1.87;0.50;;;3.50;75.20;;;;;;4878958;29;20489;-72
2021/04/16 04:15:36;;;;;;;1.00;0.40;;;3.50;75.20;;;;;;4893764;29;20053;-72
2021/04/16 04:18:11;;;;;;;3.00;0.60;;;3.50;75.20;;;;;;4892193;29;20620;-72
2021/04/16 04:20:39;;;;;;;2.37;0.80;;;3.50;75.40;;;;;;4888404;29;20049;-72
2021/04/16 04:23:07;;;;;;;1.63;0.40;;;3.50;75.50;;;;;;4887986;29;20453;-72
2021/04/16 04:25:34;;;;;;;1.67;0.40;;;3.50;75.50;;;;;;4888396;29;20068;-72
2021/04/16 04:28:04;;;;;;;1.33;0.50;;;3.50;75.50;;;;;;4892831;29;20047;-72
2021/04/16 04:30:34;;;;;;;1.20;0.37;;;3.50;75.60;;;;;;4888591;29;20497;-72
2021/04/16 04:33:00;;;;;;;2.00;0.40;;;3.60;75.60;;;;;;4875242;29;20473;-72
2021/04/16 04:35:28;;;;;;;2.23;0.70;;;3.60;75.60;;;;;;4895771;29;20382;-72
2021/04/16 04:37:54;;;;;;;1.63;0.70;;;3.70;75.80;;;;;;4881873;29;20132;-72
2021/04/16 04:40:23;;;;;;;2.13;0.80;;;3.70;75.60;;;;;;4894238;29;20100;-72
2021/04/16 04:42:49;;;;;;;2.83;0.60;;;3.80;75.50;;;;;;4864936;29;20048;-72
2021/04/16 04:45:17;;;;;;;2.50;1.07;;;3.80;75.40;;;;;;4879134;29;20044;-72
2021/04/16 04:47:44;;;;;;;1.40;0.50;;;3.90;75.50;;;;;;4891668;29;20048;-72
2021/04/16 04:50:12;;;;;;;1.80;0.57;;;3.90;75.50;;;;;;4878079;29;20044;-72
2021/04/16 04:52:40;;;;;;;2.57;0.57;;;3.90;75.60;;;;;;4880258;29;20466;-72
2021/04/16 04:55:17;;;;;;;1.83;0.70;;;4.00;75.60;;;;;;4871485;29;20048;-73
2021/04/16 04:57:44;;;;;;;1.37;0.47;;;4.00;75.50;;;;;;4873958;29;20043;-70
2021/04/16 05:00:14;;;;;;;1.40;0.60;;;4.00;75.60;;;;;;4889145;29;20494;-70
2021/04/16 05:02:40;;;;;;;1.57;0.80;;;4.00;75.60;;;;;;4893304;29;20055;-70
2021/04/16 05:05:08;;;;;;;2.73;0.60;;;4.00;75.70;;;;;;4888397;29;20045;-70
2021/04/16 05:07:35;;;;;;;1.00;0.40;;;4.00;75.70;;;;;;4883330;29;20056;-72
2021/04/16 05:10:03;;;;;;;1.80;0.80;;;3.90;75.80;;;;;;4852571;29;20059;-72
2021/04/16 05:12:31;;;;;;;1.20;0.40;;;4.00;75.90;;;;;;4897063;29;20052;-73
2021/04/16 05:14:57;;;;;;;1.57;0.87;;;3.90;75.90;;;;;;4877285;29;20052;-73
2021/04/16 05:17:24;;;;;;;1.47;0.70;;;3.90;76.00;;;;;;4894957;29;20044;-73
2021/04/16 05:19:51;;;;;;;1.70;0.50;;;4.00;76.00;;;;;;4896845;29;20127;-73
2021/04/16 05:22:17;;;;;;;1.43;0.60;;;4.00;76.10;;;;;;4899243;29;20040;-73
2021/04/16 05:24:44;;;;;;;1.63;0.50;;;4.00;76.20;;;;;;4878270;29;20059;-73
2021/04/16 05:27:13;;;;;;;3.10;0.80;;;4.00;76.20;;;;;;4901555;29;20044;-72
2021/04/16 05:29:40;;;;;;;1.70;0.70;;;4.00;76.20;;;;;;4879592;29;20390;-71
2021/04/16 05:32:08;;;;;;;2.90;0.83;;;4.00;76.20;;;;;;4879614;29;20044;-71
2021/04/16 05:34:34;;;;;;;1.83;0.73;;;4.00;76.20;;;;;;4862451;29;20049;-71
2021/04/16 05:37:02;;;;;;;2.13;0.80;;;4.00;76.20;;;;;;4895078;29;20092;-71
2021/04/16 05:39:29;;;;;;;2.70;0.50;;;4.00;76.30;;;;;;4880693;29;20619;-71
2021/04/16 05:41:56;;;;;;;1.93;0.97;;;4.10;76.20;;;;;;4897123;29;20060;-71
2021/04/16 05:44:23;;;;;;;2.07;0.47;;;4.10;76.20;;;;;;4868013;29;20049;-71
2021/04/16 05:46:50;;;;;;;1.90;1.10;;;4.10;76.20;;;;;;4895777;29;20044;-71
2021/04/16 05:49:17;;;;;;;3.30;1.10;;;4.10;76.30;;;;;;4896552;29;20084;-71
2021/04/16 05:51:44;;;;;;;1.73;0.60;;;4.10;76.30;;;;;;4862761;29;20045;-70
2021/04/16 05:54:11;;;;;;;2.27;0.67;;;4.20;76.30;;;;;;4879609;29;20057;-71
2021/04/16 05:56:38;;;;;;;1.10;0.50;;;4.30;76.30;;;;;;4879701;29;20060;-71
2021/04/16 05:59:04;;;;;;;1.07;0.40;;;4.30;76.10;;;;;;4888057;29;20044;-71
2021/04/16 06:01:33;;;;;;;1.43;0.50;;;4.40;76.10;;;;;;4871020;29;20048;-71
2021/04/16 06:04:00;;;;;;;2.20;0.53;;;4.40;75.90;;;;;;4890465;29;20072;-72
2021/04/16 06:06:27;;;;;;;1.97;0.57;;;4.50;75.90;;;;;;4896169;29;20036;-72
2021/04/16 06:08:55;;;;;;;2.40;0.50;;;4.50;76.00;;;;;;4889372;29;20045;-72
2021/04/16 06:11:22;;;;;;;1.43;0.60;;;4.50;76.00;;;;;;4870503;29;20049;-73
2021/04/16 06:13:49;;;;;;;1.60;0.37;;;4.50;76.00;;;;;;4892374;29;20562;-72
2021/04/16 06:16:17;;;;;;;1.60;0.50;;;4.50;76.00;;;;;;4896333;29;20047;-73
2021/04/16 06:18:43;;;;;;;1.07;0.40;;;4.60;76.10;;;;;;4876248;29;20065;-73
2021/04/16 06:21:11;;;;;;;3.43;0.80;;;4.50;76.10;;;;;;4864415;29;20489;-73
2021/04/16 06:23:38;;;;;;;1.87;0.60;;;4.50;76.10;;;;;;4875475;29;20123;-73
2021/04/16 06:26:05;;;;;;;1.53;0.50;;;4.60;76.20;;;;;;4866934;29;20060;-73
2021/04/16 06:28:31;;;;;;;1.10;0.53;;;4.60;76.10;;;;;;4864771;29;20123;-73
2021/04/16 06:30:58;;;;;;;2.57;0.50;;;4.70;76.10;;;;;;4894614;29;20063;-71
2021/04/16 06:33:32;;;;;;;1.97;0.67;;;4.80;76.10;;;;;;4878186;29;20430;-71
2021/04/16 06:36:11;;;;;;;1.10;0.40;;;4.80;75.90;;;;;;4865308;29;20052;-70
2021/04/16 06:38:41;;;;;;;1.90;0.30;;;4.90;75.80;;;;;;4895371;29;20071;-70
2021/04/16 06:41:26;;;;;;;1.03;0.40;;;5.00;75.80;;;;;;4876932;29;20532;-73
2021/04/16 06:43:55;;;;;;;1.77;0.63;;;5.00;75.70;;;;;;4853207;29;20437;-72
2021/04/16 06:46:30;;;;;;;1.33;0.50;;;5.00;75.70;;;;;;4879313;29;20048;-72
2021/04/16 06:49:01;;;;;;;1.10;0.50;;;5.00;75.70;;;;;;4885088;29;20044;-77
2021/04/16 06:51:30;;;;;;;1.27;0.50;;;5.00;75.60;;;;;;4881202;29;20111;-72
2021/04/16 06:54:13;;;;;;;1.73;0.60;;;5.20;75.60;;;;;;4887564;29;20398;-73
2021/04/16 06:56:46;;;;;;;1.37;0.50;;;5.50;75.40;;;;;;4879228;29;20186;-73
2021/04/16 06:59:29;;;;;;;2.08;0.90;;;5.70;75.10;;;;;;4889174;29;20512;-73
2021/04/16 07:01:55;;;;;;;;;;;5.90;74.80;;;;;;4882796;29;20108;-73
2021/04/16 07:05:01;;;;;;;1.90;0.70;;;6.10;74.50;;;;;;4893391;29;19923;-73
2021/04/16 07:07:49;;;;;;;2.70;1.03;;;6.30;74.20;;;;;;4805930;29;20054;-73
2021/04/16 07:10:22;;;;;;;3.93;0.87;;;6.40;74.00;;;;;;4823124;29;20062;-73
2021/04/16 07:12:54;;;;;;;2.67;0.60;;;6.50;73.90;;;;;;4848796;29;20627;-74
2021/04/16 07:15:38;;;;;;;2.90;0.70;;;6.60;73.90;;;;;;4886899;29;20449;-74
2021/04/16 07:18:05;;;;;;;2.90;0.77;;;6.80;73.80;;;;;;4898618;29;20049;-73
2021/04/16 07:20:33;;;;;;;1.53;0.77;;;6.90;73.60;;;;;;4867300;29;20048;-73
2021/04/16 07:23:01;;;;;;;1.97;0.70;;;7.00;73.50;;;;;;4882148;29;20060;-73
2021/04/16 07:25:35;;;;;;;2.10;0.90;;;7.10;73.40;;;;;;4880671;29;20135;-73
2021/04/16 07:28:06;;;;;;;2.53;0.93;;;7.10;73.00;;;;;;4880644;29;20097;-74
2021/04/16 07:30:50;;;;;;;2.00;0.80;;;7.30;72.90;;;;;;4895180;29;20057;-73
2021/04/16 07:33:50;;;;;;;2.77;1.03;;;7.40;72.80;;;;;;4880066;29;20052;-73
2021/04/16 07:36:40;;;;;;;2.23;0.70;;;7.50;72.60;;;;;;4862903;29;20045;-72
2021/04/16 07:39:13;;;;;;;0.83;0.40;;;7.70;72.40;;;;;;4883978;29;20109;-72
2021/04/16 07:41:54;;;;;;;0.95;0.43;;;7.80;72.20;;;;;;4881269;29;20044;-72
2021/04/16 07:44:28;;;;;;;1.57;0.57;;;7.90;71.90;;;;;;4887840;29;20060;-72
2021/04/16 07:46:58;;;;;;;1.67;0.60;;;8.10;71.70;;;;;;4878185;29;20048;-72
2021/04/16 07:49:30;;;;;;;0.90;0.40;;;8.30;71.50;;;;;;4898393;29;20544;-73
2021/04/16 07:52:19;;;;;;;2.37;0.67;;;8.40;71.20;;;;;;4894969;29;20059;-71
2021/04/16 07:55:21;;;;;;;2.33;0.60;;;8.50;70.60;;;;;;4854901;29;20802;-72
2021/04/16 07:57:50;;;;;;;1.23;0.50;;;8.70;69.80;;;;;;4807897;29;20062;-72
2021/04/16 08:00:23;;;;;;;1.50;0.60;;;8.80;69.90;;;;;;4872448;29;20504;-73
2021/04/16 08:03:10;;;;;;;1.17;0.30;;;8.90;69.60;;;;;;4894993;29;20745;-72
2021/04/16 08:05:50;;;;;;;1.35;0.65;;;9.00;69.40;;;;;;4880545;29;20398;-73
2021/04/16 08:08:17;;;;;;;1.23;0.60;;;9.10;68.70;;;;;;4895592;29;20048;-72
2021/04/16 08:11:11;;;;;;;1.55;0.57;;;9.20;68.40;;;;;;4879720;29;20072;-72
2021/04/16 08:13:47;;;;;;;1.63;0.60;;;9.30;67.70;;;;;;4861209;29;20493;-72
2021/04/16 08:16:27;;;;;;;1.42;0.63;;;9.30;67.20;;;;;;4894967;29;20045;-72
2021/04/16 08:18:56;;;;;;;1.27;0.60;;;9.40;66.80;;;;;;4878493;29;20045;-72
2021/04/16 08:21:25;;;;;;;1.20;0.50;;;9.50;66.10;;;;;;4876632;29;20068;-71
2021/04/16 08:24:17;;;;;;;1.30;0.40;;;9.50;66.00;;;;;;4877559;29;20052;-72
2021/04/16 08:26:52;;;;;;;1.75;0.50;;;9.60;65.70;;;;;;4875149;29;20124;-72
2021/04/16 08:29:26;;;;;;;1.95;0.40;;;9.70;65.40;;;;;;4892566;29;20517;-72
2021/04/16 08:32:04;;;;;;;0.90;0.40;;;9.70;64.80;;;;;;4889611;29;20053;-73
2021/04/16 08:34:43;;;;;;;0.95;0.40;;;9.80;64.90;;;;;;4865365;29;20059;-72
2021/04/16 08:37:30;;;;;;;0.80;0.30;;;9.90;64.60;;;;;;4868824;29;20048;-72
2021/04/16 08:39:57;;;;;;;0.88;0.30;;;10.00;64.60;;;;;;4878112;29;20053;-76
2021/04/16 08:42:28;;;;;;;1.23;0.40;;;10.00;63.70;;;;;;4858202;29;20041;-75
2021/04/16 08:45:01;;;;;;;1.38;0.30;;;10.10;63.30;;;;;;4890813;29;20045;-72
2021/04/16 08:47:35;;;;;;;0.63;0.30;;;10.30;62.70;;;;;;4890677;29;20041;-73
2021/04/16 08:50:04;;;;;;;0.80;0.30;;;10.30;62.10;;;;;;4889436;29;20032;-70
2021/04/16 08:52:40;;;;;;;0.70;0.32;;;10.30;61.80;;;;;;4883275;29;20474;-71
2021/04/16 08:55:14;;;;;;;1.98;0.30;;;10.30;61.20;;;;;;4861329;29;20052;-70
2021/04/16 08:58:07;;;;;;;1.38;0.40;;;10.30;61.00;;;;;;4874808;29;20473;-72
2021/04/16 09:00:48;;;;;;;0.80;0.30;;;10.40;60.10;;;;;;4871613;29;20560;-72
2021/04/16 09:03:38;;;;;;;1.05;0.40;;;10.30;60.00;;;;;;4887805;29;20500;-72
2021/04/16 09:06:25;;;;;;;0.60;0.30;;;10.30;59.60;;;;;;4877315;29;20037;-73
2021/04/16 09:08:53;;;;;;;0.85;0.40;;;10.30;58.90;;;;;;4867539;29;20036;-72
2021/04/16 09:11:46;;;;;;;1.15;0.30;;;10.30;59.00;;;;;;4876820;29;20047;-72
2021/04/16 09:14:24;;;;;;;0.85;0.30;;;10.40;58.40;;;;;;4873734;29;20048;-72
2021/04/16 09:16:56;;;;;;;1.33;0.32;;;10.40;59.00;;;;;;4893741;29;20062;-75
2021/04/16 09:19:25;;;;;;;2.13;0.90;;;10.50;58.70;;;;;;4893192;29;20032;-75
2021/04/16 09:22:10;;;;;;;0.65;0.30;;;10.50;58.10;;;;;;4885492;29;20049;-72
2021/04/16 09:24:51;;;;;;;1.17;0.40;;;10.60;57.80;;;;;;4892542;29;20699;-74
2021/04/16 09:27:37;;;;;;;1.48;0.40;;;10.60;57.90;;;;;;4875560;29;20052;-70
2021/04/16 09:30:06;;;;;;;1.02;0.40;;;10.60;57.70;;;;;;4856306;29;20061;-72
2021/04/16 09:32:33;;;;;;;0.73;0.30;;;10.70;57.90;;;;;;4886676;29;20040;-74
2021/04/16 09:35:05;;;;;;;1.05;0.25;;;10.80;57.70;;;;;;4892607;29;20057;-74
2021/04/16 09:37:34;;;;;;;2.20;0.43;;;10.80;57.40;;;;;;4893463;29;20132;-73
2021/04/16 09:40:20;;;;;;;0.95;0.30;;;10.90;57.00;;;;;;4874869;29;20503;-74
2021/04/16 09:42:57;;;;;;;1.58;0.75;;;10.90;56.70;;;;;;4877402;29;20051;-75
2021/04/16 09:45:32;;;;;;;1.63;0.50;;;10.90;55.90;;;;;;4893106;29;20036;-75
2021/04/16 09:48:04;;;;;;;1.25;0.40;;;10.80;55.50;;;;;;4854507;29;20059;-71
2021/04/16 09:50:35;;;;;;;0.65;0.30;;;10.90;55.40;;;;;;4868444;29;20115;-72
2021/04/16 09:53:28;;;;;;;1.73;0.30;;;10.90;55.60;;;;;;4879243;29;20108;-75
2021/04/16 09:55:58;;;;;;;;;;;11.00;55.30;;;;;;4876778;29;20072;-74
2021/04/16 09:58:42;;;;;;;0.75;0.30;;;11.10;54.90;;;;;;4893005;29;19967;-75
2021/04/16 10:01:18;;;;;;;0.60;0.20;;;11.10;55.10;;;;;;4886659;29;20048;-74
2021/04/16 10:04:07;;;;;;;2.30;0.40;;;11.20;54.20;;;;;;4876520;29;20056;-72
2021/04/16 10:06:43;;;;;;;1.27;0.50;;;11.20;53.80;;;;;;4875162;29;20397;-74
2021/04/16 10:09:16;;;;;;;1.25;0.30;;;11.20;53.70;;;;;;4857567;29;20032;-74
2021/04/16 10:11:51;;;;;;;1.05;0.30;;;11.30;53.40;;;;;;4871904;29;20040;-74
2021/04/16 10:14:24;;;;;;;0.88;0.35;;;11.30;53.20;;;;;;4892980;29;20040;-74
2021/04/16 10:17:11;;;;;;;1.23;0.32;;;11.40;52.70;;;;;;4884434;29;20493;-75
2021/04/16 10:19:41;;;;;;;1.15;0.30;;;11.50;52.30;;;;;;4867518;29;20390;-75
2021/04/16 10:22:26;;;;;;;1.48;0.45;;;11.60;52.50;;;;;;4885087;29;20097;-74
2021/04/16 11:04:12;;;;;;;1.00;0.40;;;14.10;47.40;;;;;;4874813;29;20131;-75
2021/04/16 12:39:41;;;;;;;0.75;0.20;;;13.00;45.70;;;;;;4873080;29;20102;-73
2021/04/16 12:42:09;;;;;;;1.77;0.35;;;13.00;45.60;;;;;;4876395;29;20441;-72
2021/04/16 12:44:50;;;;;;;0.30;0.10;;;13.00;45.30;;;;;;4871600;29;20382;-73
2021/04/16 12:47:25;;;;;;;0.70;0.30;;;13.00;45.10;;;;;;4876222;29;20048;-72
2021/04/16 12:49:52;;;;;;;0.75;0.30;;;13.00;44.70;;;;;;4871923;29;20056;-73
2021/04/16 12:52:20;;;;;;;2.72;0.40;;;13.00;44.60;;;;;;4860563;29;20037;-72
2021/04/16 12:54:49;;;;;;;0.60;0.20;;;12.90;44.90;;;;;;4884354;29;20106;-71
2021/04/16 12:57:24;;;;;;;0.80;0.20;;;12.90;44.80;;;;;;4873481;29;20044;-72
2021/04/16 12:59:50;;;;;;;0.82;0.30;;;13.00;44.50;;;;;;4865068;29;20458;-72
2021/04/16 13:02:23;;;;;;;0.68;0.20;;;13.00;44.30;;;;;;4873860;29;20488;-72
2021/04/16 13:04:50;;;;;;;0.38;0.17;;;12.90;44.00;;;;;;4874970;29;20037;-72
2021/04/16 13:07:17;;;;;;;2.92;0.20;;;12.90;44.00;;;;;;4876892;29;20040;-71
2021/04/16 13:09:44;;;;;;;1.20;0.30;;;13.00;44.20;;;;;;4858335;29;20049;-72
2021/04/16 13:12:10;;;;;;;2.72;0.55;;;13.00;44.30;;;;;;4868077;29;20053;-76
2021/04/16 13:14:37;;;;;;;1.70;0.40;;;13.10;44.00;;;;;;4856178;29;20425;-75
2021/04/16 13:17:04;;;;;;;1.20;0.25;;;13.20;44.70;;;;;;4868586;29;20056;-76
2021/04/16 13:19:33;;;;;;;1.05;0.47;;;13.20;44.00;;;;;;4860462;29;20053;-73
2021/04/16 13:22:08;;;;;;;1.13;0.43;;;13.30;43.90;;;;;;4871798;29;20049;-75
2021/04/16 13:24:35;;;;;;;1.10;0.30;;;13.40;43.70;;;;;;4884699;29;20493;-75
2021/04/16 13:27:04;;;;;;;0.98;0.40;;;13.40;44.00;;;;;;4873739;29;20082;-72
2021/04/16 13:29:31;;;;;;;0.95;0.30;;;13.50;43.80;;;;;;4889203;29;20060;-74
2021/04/16 13:31:59;;;;;;;2.05;0.38;;;13.50;43.80;;;;;;4868756;29;20353;-72
2021/04/16 13:34:26;;;;;;;2.05;0.30;;;13.60;44.00;;;;;;4869464;29;20059;-71
2021/04/16 13:36:53;;;;;;;0.68;0.30;;;13.60;43.70;;;;;;4882575;29;20161;-71
2021/04/16 13:39:20;;;;;;;0.90;0.50;;;13.50;43.80;;;;;;4886602;29;20040;-71
2021/04/16 13:41:47;;;;;;;0.93;0.30;;;13.40;44.20;;;;;;4890759;29;20044;-72
2021/04/16 13:44:15;;;;;;;1.77;0.75;;;13.30;44.40;;;;;;4888926;29;20040;-69
2021/04/16 13:46:48;;;;;;;0.83;0.23;;;13.30;44.30;;;;;;4871789;29;20051;-72
2021/04/16 13:49:20;;;;;;;0.77;0.25;;;13.30;44.00;;;;;;4860092;29;20309;-73
2021/04/16 13:51:48;;;;;;;1.05;0.22;;;13.30;44.30;;;;;;4874376;29;20051;-71
2021/04/16 13:54:15;;;;;;;0.70;0.28;;;13.30;44.10;;;;;;4872351;29;20077;-74
2021/04/16 13:56:42;;;;;;;2.92;0.60;;;13.30;44.30;;;;;;4883126;29;20041;-73
2021/04/16 13:59:08;;;;;;;0.70;0.20;;;13.30;44.20;;;;;;4873825;29;20052;-76
2021/04/16 14:01:35;;;;;;;0.95;0.30;;;13.40;44.40;;;;;;4891965;29;20059;-76
2021/04/16 14:04:06;;;;;;;1.23;0.40;;;13.40;44.50;;;;;;4876669;29;20051;-75
2021/04/16 14:06:41;;;;;;;0.93;0.30;;;13.50;44.40;;;;;;4870112;29;20660;-76
2021/04/16 14:09:11;;;;;;;1.75;0.55;;;13.50;44.30;;;;;;4871020;29;20482;-76
2021/04/16 14:11:37;;;;;;;3.15;0.60;;;13.40;44.30;;;;;;4859723;29;20049;-77
2021/04/16 14:14:09;;;;;;;0.60;0.22;;;13.40;44.30;;;;;;4859818;29;20105;-77
2021/04/16 14:16:39;;;;;;;1.23;0.40;;;13.50;44.50;;;;;;4865873;29;20115;-76
2021/04/16 14:19:10;;;;;;;1.23;0.32;;;13.50;44.10;;;;;;4869774;29;20041;-75
2021/04/16 14:21:40;;;;;;;1.73;0.30;;;13.60;44.20;;;;;;4888092;29;20044;-75
2021/04/16 14:24:10;;;;;;;0.80;0.35;;;13.60;43.80;;;;;;4888827;29;20104;-74
2021/04/16 14:26:36;;;;;;;0.60;0.30;;;13.50;43.80;;;;;;4888019;29;20069;-75
2021/04/16 14:29:04;;;;;;;0.82;0.30;;;13.50;44.00;;;;;;4884213;29;20060;-74
2021/04/16 14:31:31;;;;;;;1.05;0.43;;;13.50;43.80;;;;;;4867820;29;20056;-73
2021/04/16 14:33:57;;;;;;;0.60;0.25;;;13.60;43.90;;;;;;4857060;29;20063;-75
2021/04/16 14:36:34;;;;;;;1.15;0.30;;;13.90;44.50;;;;;;4858213;29;20056;-75
2021/04/16 14:39:04;;;;;;;1.65;0.40;;;15.60;43.50;;;;;;4865930;29;20041;-75
2021/04/16 14:41:33;;;;;;;1.75;0.40;;;17.20;42.00;;;;;;4888658;29;20048;-75
2021/04/16 14:44:02;;;;;;;1.25;0.30;;;18.60;40.10;;;;;;4891843;29;20044;-74
2021/04/16 14:46:28;;;;;;;1.35;0.45;;;19.70;39.30;;;;;;4891723;29;20045;-74
2021/04/16 14:48:55;;;;;;;0.80;0.30;;;20.70;38.70;;;;;;4865535;29;20123;-75
2021/04/16 14:51:28;;;;;;;2.15;0.40;;;21.40;38.00;;;;;;4882363;29;20060;-75
2021/04/16 14:54:10;;;;;;;0.73;0.30;;;22.10;37.40;;;;;;4865660;29;20056;-75
2021/04/16 14:56:36;;;;;;;1.05;0.30;;;22.80;36.50;;;;;;4874531;29;20450;-74
2021/04/16 14:59:28;;;;;;;2.03;0.38;;;23.00;36.50;;;;;;4875544;29;20056;-76
2021/04/16 15:01:55;;;;;;;1.63;0.30;;;22.90;35.60;;;;;;4873058;29;20084;-76
2021/04/16 15:04:22;;;;;;;1.15;0.38;;;23.10;35.60;;;;;;4877377;29;20064;-77
2021/04/16 15:06:55;;;;;;;2.42;0.40;;;23.00;35.00;;;;;;4889293;29;20049;-76
2021/04/16 15:09:24;;;;;;;0.90;0.30;;;22.90;34.90;;;;;;4869440;29;20041;-76
2021/04/16 15:11:52;;;;;;;0.40;0.20;;;23.00;34.90;;;;;;4892339;29;20143;-77
2021/04/16 15:14:22;;;;;;;2.35;0.38;;;22.80;34.30;;;;;;4892060;29;20040;-78
2021/04/16 15:16:51;;;;;;;0.75;0.30;;;22.40;34.40;;;;;;4878067;29;20059;-77
2021/04/16 15:19:32;;;;;;;1.80;0.30;;;21.20;35.30;;;;;;4879094;29;20053;-77
2021/04/16 15:22:04;;;;;;;1.08;0.35;;;20.50;36.20;;;;;;4889034;29;20048;-77
2021/04/16 15:24:32;;;;;;;1.15;0.40;;;20.90;36.40;;;;;;4867852;29;20064;-76